Oscoda, Michigan
Current Conditions -  °F | °C
As of 6:13 AM on Friday 28 Nov 2014 (Local Time) from KOSC Reporting Station
Overcast Overcast  
Wind Chill: -14°   Ceiling: 3800
Heat Index: -9°   Visibility: 10mi
Dew Point: -11°   Wind: 6mph
Humidity: 85%   Direction: 260°W
Pressure: 30.29"   Gusts: NA
Location:  44.42°N, 83.33°W
Report Text: KOSC 281113Z AUTO 26005KT 10SM OVC038 M09/M11 A3029 RMK AO2 T10921113
Loading
Personal Weather Stations






























Interactive Weather Map New forecast layout! Learn more

10-Day Weather Forecast

Advertisements
Track Severe Weather on mobile